Emerald Star — WCW7286 — position and weather

sailwx.info

Track history (hours):
 
Tides and Currents Weather Stations Pressure Air Temp Water Temp Dewpoint Dewpoint Depression Visibility Wind Speed Wind Dir Waves Ship Positions

Emerald Star

Owner: WATERWAYS CRUISES INC, SEATTLE, WA. More information available from US FCC via Universal Licensing System and Coast Guard Vessel Documentation Center.

Last reported at 2017-Nov-23 01:28 UTC. Time now 2017-Nov-23 01:39 UTC.
Position N 47°39' W 122°20'.

Length 32 m; draft 1.5 m.

Type: Passenger vessel. MMSI: 367122360.

Date/timePositionNaut miles runAvg speedWind from/ knotsBaromVisibWave heightAir tempDewpointWater temp
2017-Nov-23 01:28N 47°39' W 122°20'0 0.0
2017-Nov-23 00:18N 47°39' W 122°20'0 0.0
2017-Nov-22 23:52N 47°39' W 122°20'0 0.0
2017-Nov-22 23:30N 47°39' W 122°20'0 0.0
2017-Nov-22 23:00N 47°39' W 122°20'0 0.0
2017-Nov-22 21:52N 47°39' W 122°20'0 0.0
2017-Nov-22 21:30N 47°39' W 122°20'  
2017-Nov-19 21:01N 47°39' W 122°20'0 3.3
2017-Nov-19 21:00N 47°39' W 122°20'1 1.3
2017-Nov-19 20:30N 47°38' W 122°20'2 4.8
2017-Nov-19 20:00N 47°39' W 122°17'1 1.7
2017-Nov-19 19:30N 47°38' W 122°16'3 0.4
2017-Nov-19 13:30N 47°39' W 122°20'0 0.0
2017-Nov-19 12:51N 47°39' W 122°20'0 0.0
2017-Nov-19 12:24N 47°39' W 122°20'0 0.0
2017-Nov-19 09:56N 47°39' W 122°20'0 0.0
2017-Nov-19 09:23N 47°39' W 122°20'0 0.0
2017-Nov-19 08:56N 47°39' W 122°20'0 0.0
2017-Nov-19 07:32N 47°39' W 122°20'0 0.0
2017-Nov-19 07:05N 47°39' W 122°20'0 0.0
2017-Nov-19 06:59N 47°39' W 122°20'0 0.0
2017-Nov-19 04:57N 47°39' W 122°20'2 5.0
2017-Nov-19 04:30N 47°40' W 122°23'2 4.8
2017-Nov-19 04:00N 47°38' W 122°20'1 2.9
2017-Nov-19 03:30N 47°39' W 122°18'1 1.4
2017-Nov-19 03:00N 47°39' W 122°17'2 0.3
2017-Nov-18 20:57N 47°39' W 122°20'1 1.7
2017-Nov-18 20:30N 47°38' W 122°20'3 6.1
2017-Nov-18 20:00N 47°39' W 122°16'0 0.8
2017-Nov-18 19:30N 47°39' W 122°16'2 0.3
2017-Nov-18 11:20N 47°39' W 122°20'0 0.0
2017-Nov-18 10:59N 47°39' W 122°20'0 0.0
2017-Nov-18 10:29N 47°39' W 122°20'0 0.0
2017-Nov-18 09:08N 47°39' W 122°20'0 0.0
2017-Nov-18 08:59N 47°39' W 122°20'0 0.0
2017-Nov-18 08:26N 47°39' W 122°20'0 0.0
2017-Nov-18 06:50N 47°39' W 122°20'0 0.0
2017-Nov-18 05:28N 47°39' W 122°20'2 4.2
2017-Nov-18 05:00N 47°40' W 122°22'1 2.9
2017-Nov-18 04:30N 47°39' W 122°21'1 1.1
2017-Nov-18 04:00N 47°39' W 122°20'2 3.8
2017-Nov-18 03:30N 47°39' W 122°17'2 0.3
2017-Nov-17 21:23N 47°39' W 122°20'0 0.0
2017-Nov-17 12:34N 47°39' W 122°20'0 0.0
2017-Nov-17 12:22N 47°39' W 122°20'0 0.0
2017-Nov-17 11:58N 47°39' W 122°20'0 0.0
2017-Nov-17 11:22N 47°39' W 122°20'0 0.0
2017-Nov-17 10:58N 47°39' W 122°20'0 0.0
2017-Nov-17 10:28N 47°39' W 122°20'0 0.0
2017-Nov-17 09:40N 47°39' W 122°20'0 0.0
2017-Nov-17 09:28N 47°39' W 122°20'0 0.0
2017-Nov-17 08:36N 47°39' W 122°20'0 0.0
2017-Nov-17 08:03N 47°39' W 122°20'0 0.0
2017-Nov-17 08:00N 47°39' W 122°20'0 0.0
2017-Nov-17 07:24N 47°39' W 122°20'1 0.1
2017-Nov-16 22:45N 47°39' W 122°20'0 0.7
2017-Nov-16 22:31N 47°39' W 122°20'0 0.3
2017-Nov-16 22:00N 47°39' W 122°21'1 1.3
2017-Nov-16 21:25N 47°39' W 122°20'0 0.0
2017-Nov-16 20:49N 47°39' W 122°20'0 0.0
2017-Nov-16 20:28N 47°39' W 122°20'0 0.0
2017-Nov-16 19:58N 47°39' W 122°20'0 0.0
2017-Nov-16 19:21N 47°39' W 122°20'0 0.0
2017-Nov-16 19:00N 47°39' W 122°20'0 0.0
2017-Nov-16 18:30N 47°39' W 122°20'0 0.0
2017-Nov-16 17:49N 47°39' W 122°20'0 0.0
2017-Nov-16 15:27N 47°39' W 122°20'0 0.0
2017-Nov-16 14:48N 47°39' W 122°20'0 0.0
2017-Nov-16 14:27N 47°39' W 122°20'0 0.0
2017-Nov-16 13:51N 47°39' W 122°20'0 0.0
2017-Nov-16 13:21N 47°39' W 122°20'0 0.0
2017-Nov-16 12:38N 47°39' W 122°20'0 0.0
2017-Nov-16 12:29N 47°39' W 122°20'0 0.0
2017-Nov-16 11:50N 47°39' W 122°20'0 0.0
2017-Nov-16 11:26N 47°39' W 122°20'0 0.0
2017-Nov-16 10:59N 47°39' W 122°20'0 0.0
2017-Nov-16 09:51N 47°39' W 122°20'0 0.0
2017-Nov-16 09:29N 47°39' W 122°20'0 0.0
2017-Nov-16 08:50N 47°39' W 122°20'0 0.0
2017-Nov-16 08:14N 47°39' W 122°20'0 0.0
2017-Nov-16 07:56N 47°39' W 122°20'0 0.0
2017-Nov-16 07:26N 47°39' W 122°20'0 0.0
2017-Nov-16 06:05N 47°39' W 122°20'0 0.0
2017-Nov-16 05:50N 47°39' W 122°20'0 0.0
2017-Nov-16 05:29N 47°39' W 122°20'0 0.0
2017-Nov-16 04:59N 47°39' W 122°20'0 0.0
2017-Nov-16 04:29N 47°39' W 122°20'0 0.0
2017-Nov-16 03:11N 47°39' W 122°20'0 0.0
2017-Nov-16 02:53N 47°39' W 122°20'0 0.0
2017-Nov-16 01:59N 47°39' W 122°20'0 0.0
2017-Nov-16 01:29N 47°39' W 122°20'0 0.0
2017-Nov-16 00:56N 47°39' W 122°20'0 0.0
2017-Nov-16 00:29N 47°39' W 122°20'0 0.0
2017-Nov-15 23:46N 47°39' W 122°20'0 0.0
2017-Nov-15 22:52N 47°39' W 122°20'0 0.0
2017-Nov-15 22:28N 47°39' W 122°20'0 0.0
2017-Nov-15 21:55N 47°39' W 122°20'0 0.0
2017-Nov-15 21:28N 47°39' W 122°20'0 0.0
2017-Nov-15 20:58N 47°39' W 122°20'0 0.0
2017-Nov-15 19:52N 47°39' W 122°20'0 0.0
2017-Nov-15 19:25N 47°39' W 122°20'0 0.0
2017-Nov-15 18:58N 47°39' W 122°20'0 0.0
2017-Nov-15 18:25N 47°39' W 122°20'0 0.0
2017-Nov-15 18:00N 47°39' W 122°20'0 0.0
2017-Nov-15 17:28N 47°39' W 122°20'0 0.0
2017-Nov-15 16:55N 47°39' W 122°20'0 0.0
2017-Nov-15 16:30N 47°39' W 122°20'0 0.0
2017-Nov-15 15:57N 47°39' W 122°20'0 0.0
2017-Nov-15 15:18N 47°39' W 122°20'0 0.0
2017-Nov-15 14:54N 47°39' W 122°20'0 0.0
2017-Nov-15 14:24N 47°39' W 122°20'0 0.0
2017-Nov-15 13:57N 47°39' W 122°20'0 0.0
2017-Nov-15 13:30N 47°39' W 122°20'0 0.0
2017-Nov-15 12:57N 47°39' W 122°20'0 0.0
2017-Nov-15 12:30N 47°39' W 122°20'0 0.0
2017-Nov-15 12:00N 47°39' W 122°20'0 0.0
2017-Nov-15 11:30N 47°39' W 122°20'0 0.0
2017-Nov-15 11:00N 47°39' W 122°20'0 0.0
2017-Nov-15 10:29N 47°39' W 122°20'0 0.0
2017-Nov-15 10:00N 47°39' W 122°20'0 0.0
2017-Nov-15 09:30N 47°39' W 122°20'0 0.0
2017-Nov-15 08:56N 47°39' W 122°20'0 0.0
2017-Nov-15 08:29N 47°39' W 122°20'0 0.0
2017-Nov-15 07:59N 47°39' W 122°20'0 0.0
2017-Nov-15 07:29N 47°39' W 122°20'0 0.0
2017-Nov-15 06:59N 47°39' W 122°20'0 0.0
2017-Nov-15 06:29N 47°39' W 122°20'0 0.0
2017-Nov-15 05:53N 47°39' W 122°20'0 0.0
2017-Nov-15 05:26N 47°39' W 122°20'0 0.0
2017-Nov-15 04:59N 47°39' W 122°20'0 0.0
2017-Nov-15 04:17N 47°39' W 122°20'0 0.0
2017-Nov-15 03:56N 47°39' W 122°20'0 0.0
2017-Nov-15 03:23N 47°39' W 122°20'0 0.0
2017-Nov-15 02:59N 47°39' W 122°20'0 0.0
2017-Nov-15 02:29N 47°39' W 122°20'0 0.0
2017-Nov-15 01:59N 47°39' W 122°20'0 0.0
2017-Nov-15 01:26N 47°39' W 122°20'0 0.0
2017-Nov-15 00:59N 47°39' W 122°20'0 0.0
2017-Nov-15 00:29N 47°39' W 122°20'0 0.0
2017-Nov-14 23:58N 47°39' W 122°20'0 0.0
2017-Nov-14 23:28N 47°39' W 122°20'0 0.0
2017-Nov-14 22:58N 47°39' W 122°20'0 0.0
2017-Nov-14 22:28N 47°39' W 122°20'0 0.0
2017-Nov-14 21:58N 47°39' W 122°20'0 0.0
2017-Nov-14 21:25N 47°39' W 122°20'0 0.0
2017-Nov-14 20:58N 47°39' W 122°20'0 0.0
2017-Nov-14 20:28N 47°39' W 122°20'0 0.0
2017-Nov-14 19:55N 47°39' W 122°20'0 0.0
2017-Nov-14 19:25N 47°39' W 122°20'0 0.0
2017-Nov-14 18:58N 47°39' W 122°20'0 0.0
2017-Nov-14 18:25N 47°39' W 122°20'0 0.0
2017-Nov-14 17:58N 47°39' W 122°20'0 0.0
2017-Nov-14 17:30N 47°39' W 122°20'0 0.0
2017-Nov-14 16:58N 47°39' W 122°20'0 0.0
2017-Nov-14 16:30N 47°39' W 122°20'0 0.0
2017-Nov-14 16:00N 47°39' W 122°20'0 0.0
2017-Nov-14 15:30N 47°39' W 122°20'0 0.0
2017-Nov-14 14:42N 47°39' W 122°20'0 0.0
2017-Nov-14 14:30N 47°39' W 122°20'0 0.0
2017-Nov-14 13:51N 47°39' W 122°20'0 0.0
2017-Nov-14 13:30N 47°39' W 122°20'0 0.0
2017-Nov-14 13:00N 47°39' W 122°20'0 0.0
2017-Nov-14 12:30N 47°39' W 122°20'0 0.0
2017-Nov-14 11:39N 47°39' W 122°20'0 0.0
2017-Nov-14 11:27N 47°39' W 122°20'0 0.0
2017-Nov-14 11:00N 47°39' W 122°20'0 0.0
2017-Nov-14 10:30N 47°39' W 122°20'0 0.0
2017-Nov-14 09:57N 47°39' W 122°20'0 0.0
2017-Nov-14 09:27N 47°39' W 122°20'0 0.0
2017-Nov-14 08:59N 47°39' W 122°20'0 0.0
2017-Nov-14 08:29N 47°39' W 122°20'0 0.0
2017-Nov-14 07:59N 47°39' W 122°20'0 0.0
2017-Nov-14 07:29N 47°39' W 122°20'0 0.0
2017-Nov-14 07:00N 47°39' W 122°20'0 0.0
2017-Nov-14 06:17N 47°39' W 122°20'0 0.0
2017-Nov-14 05:50N 47°39' W 122°20'0 0.0
2017-Nov-14 05:26N 47°39' W 122°20'0 0.0
2017-Nov-14 04:59N 47°39' W 122°20'0 0.0
2017-Nov-14 04:29N 47°39' W 122°20'0 0.0
2017-Nov-14 03:44N 47°39' W 122°20'0 0.0
2017-Nov-14 02:59N 47°39' W 122°20'0 0.0
2017-Nov-14 02:29N 47°39' W 122°20'0 0.0
2017-Nov-14 01:59N 47°39' W 122°20'0 0.0
2017-Nov-14 01:26N 47°39' W 122°20'0 0.0
2017-Nov-14 00:56N 47°39' W 122°20'0 0.0
2017-Nov-14 00:29N 47°39' W 122°20'0 0.0
2017-Nov-13 23:56N 47°39' W 122°20'0 0.0
2017-Nov-13 23:23N 47°39' W 122°20'0 0.0
2017-Nov-13 22:56N 47°39' W 122°20'0 0.0
2017-Nov-13 21:46N 47°39' W 122°20'0 0.0
2017-Nov-13 01:50N 47°39' W 122°20'  
Track history (hours):
 
Tides and Currents Weather Stations Pressure Air Temp Water Temp Dewpoint Dewpoint Depression Visibility Wind Speed Wind Dir Waves Ship Positions

Emerald Star

Owner: WATERWAYS CRUISES INC, SEATTLE, WA. More information available from US FCC via Universal Licensing System and Coast Guard Vessel Documentation Center.

Last reported at 2017-Nov-23 01:28 UTC. Time now 2017-Nov-23 01:39 UTC.
Position N 47°39' W 122°20'.

Length 32 m; draft 1.5 m.

Type: Passenger vessel. MMSI: 367122360.

Date/timePositionNaut miles runAvg speedWind from/ knotsBaromVisibWave heightAir tempDewpointWater temp
2017-Nov-23 01:28N 47°39' W 122°20'0 0.0
2017-Nov-23 00:18N 47°39' W 122°20'0 0.0
2017-Nov-22 23:52N 47°39' W 122°20'0 0.0
2017-Nov-22 23:30N 47°39' W 122°20'0 0.0
2017-Nov-22 23:00N 47°39' W 122°20'0 0.0
2017-Nov-22 21:52N 47°39' W 122°20'0 0.0
2017-Nov-22 21:30N 47°39' W 122°20'  
2017-Nov-19 21:01N 47°39' W 122°20'0 3.3
2017-Nov-19 21:00N 47°39' W 122°20'1 1.3
2017-Nov-19 20:30N 47°38' W 122°20'2 4.8
2017-Nov-19 20:00N 47°39' W 122°17'1 1.7
2017-Nov-19 19:30N 47°38' W 122°16'3 0.4
2017-Nov-19 13:30N 47°39' W 122°20'0 0.0
2017-Nov-19 12:51N 47°39' W 122°20'0 0.0
2017-Nov-19 12:24N 47°39' W 122°20'0 0.0
2017-Nov-19 09:56N 47°39' W 122°20'0 0.0
2017-Nov-19 09:23N 47°39' W 122°20'0 0.0
2017-Nov-19 08:56N 47°39' W 122°20'0 0.0
2017-Nov-19 07:32N 47°39' W 122°20'0 0.0
2017-Nov-19 07:05N 47°39' W 122°20'0 0.0
2017-Nov-19 06:59N 47°39' W 122°20'0 0.0
2017-Nov-19 04:57N 47°39' W 122°20'2 5.0
2017-Nov-19 04:30N 47°40' W 122°23'2 4.8
2017-Nov-19 04:00N 47°38' W 122°20'1 2.9
2017-Nov-19 03:30N 47°39' W 122°18'1 1.4
2017-Nov-19 03:00N 47°39' W 122°17'2 0.3
2017-Nov-18 20:57N 47°39' W 122°20'1 1.7
2017-Nov-18 20:30N 47°38' W 122°20'3 6.1
2017-Nov-18 20:00N 47°39' W 122°16'0 0.8
2017-Nov-18 19:30N 47°39' W 122°16'2 0.3
2017-Nov-18 11:20N 47°39' W 122°20'0 0.0
2017-Nov-18 10:59N 47°39' W 122°20'0 0.0
2017-Nov-18 10:29N 47°39' W 122°20'0 0.0
2017-Nov-18 09:08N 47°39' W 122°20'0 0.0
2017-Nov-18 08:59N 47°39' W 122°20'0 0.0
2017-Nov-18 08:26N 47°39' W 122°20'0 0.0
2017-Nov-18 06:50N 47°39' W 122°20'0 0.0
2017-Nov-18 05:28N 47°39' W 122°20'2 4.2
2017-Nov-18 05:00N 47°40' W 122°22'1 2.9
2017-Nov-18 04:30N 47°39' W 122°21'1 1.1
2017-Nov-18 04:00N 47°39' W 122°20'2 3.8
2017-Nov-18 03:30N 47°39' W 122°17'2 0.3
2017-Nov-17 21:23N 47°39' W 122°20'0 0.0
2017-Nov-17 12:34N 47°39' W 122°20'0 0.0
2017-Nov-17 12:22N 47°39' W 122°20'0 0.0
2017-Nov-17 11:58N 47°39' W 122°20'0 0.0
2017-Nov-17 11:22N 47°39' W 122°20'0 0.0
2017-Nov-17 10:58N 47°39' W 122°20'0 0.0
2017-Nov-17 10:28N 47°39' W 122°20'0 0.0
2017-Nov-17 09:40N 47°39' W 122°20'0 0.0
2017-Nov-17 09:28N 47°39' W 122°20'0 0.0
2017-Nov-17 08:36N 47°39' W 122°20'0 0.0
2017-Nov-17 08:03N 47°39' W 122°20'0 0.0
2017-Nov-17 08:00N 47°39' W 122°20'0 0.0
2017-Nov-17 07:24N 47°39' W 122°20'1 0.1
2017-Nov-16 22:45N 47°39' W 122°20'0 0.7
2017-Nov-16 22:31N 47°39' W 122°20'0 0.3
2017-Nov-16 22:00N 47°39' W 122°21'1 1.3
2017-Nov-16 21:25N 47°39' W 122°20'0 0.0
2017-Nov-16 20:49N 47°39' W 122°20'0 0.0
2017-Nov-16 20:28N 47°39' W 122°20'0 0.0
2017-Nov-16 19:58N 47°39' W 122°20'0 0.0
2017-Nov-16 19:21N 47°39' W 122°20'0 0.0
2017-Nov-16 19:00N 47°39' W 122°20'0 0.0
2017-Nov-16 18:30N 47°39' W 122°20'0 0.0
2017-Nov-16 17:49N 47°39' W 122°20'0 0.0
2017-Nov-16 15:27N 47°39' W 122°20'0 0.0
2017-Nov-16 14:48N 47°39' W 122°20'0 0.0
2017-Nov-16 14:27N 47°39' W 122°20'0 0.0
2017-Nov-16 13:51N 47°39' W 122°20'0 0.0
2017-Nov-16 13:21N 47°39' W 122°20'0 0.0
2017-Nov-16 12:38N 47°39' W 122°20'0 0.0
2017-Nov-16 12:29N 47°39' W 122°20'0 0.0
2017-Nov-16 11:50N 47°39' W 122°20'0 0.0
2017-Nov-16 11:26N 47°39' W 122°20'0 0.0
2017-Nov-16 10:59N 47°39' W 122°20'0 0.0
2017-Nov-16 09:51N 47°39' W 122°20'0 0.0
2017-Nov-16 09:29N 47°39' W 122°20'0 0.0
2017-Nov-16 08:50N 47°39' W 122°20'0 0.0
2017-Nov-16 08:14N 47°39' W 122°20'0 0.0
2017-Nov-16 07:56N 47°39' W 122°20'0 0.0
2017-Nov-16 07:26N 47°39' W 122°20'0 0.0
2017-Nov-16 06:05N 47°39' W 122°20'0 0.0
2017-Nov-16 05:50N 47°39' W 122°20'0 0.0
2017-Nov-16 05:29N 47°39' W 122°20'0 0.0
2017-Nov-16 04:59N 47°39' W 122°20'0 0.0
2017-Nov-16 04:29N 47°39' W 122°20'0 0.0
2017-Nov-16 03:11N 47°39' W 122°20'0 0.0
2017-Nov-16 02:53N 47°39' W 122°20'0 0.0
2017-Nov-16 01:59N 47°39' W 122°20'0 0.0
2017-Nov-16 01:29N 47°39' W 122°20'0 0.0
2017-Nov-16 00:56N 47°39' W 122°20'0 0.0
2017-Nov-16 00:29N 47°39' W 122°20'0 0.0
2017-Nov-15 23:46N 47°39' W 122°20'0 0.0
2017-Nov-15 22:52N 47°39' W 122°20'0 0.0
2017-Nov-15 22:28N 47°39' W 122°20'0 0.0
2017-Nov-15 21:55N 47°39' W 122°20'0 0.0
2017-Nov-15 21:28N 47°39' W 122°20'0 0.0
2017-Nov-15 20:58N 47°39' W 122°20'0 0.0
2017-Nov-15 19:52N 47°39' W 122°20'0 0.0
2017-Nov-15 19:25N 47°39' W 122°20'0 0.0
2017-Nov-15 18:58N 47°39' W 122°20'0 0.0
2017-Nov-15 18:25N 47°39' W 122°20'0 0.0
2017-Nov-15 18:00N 47°39' W 122°20'0 0.0
2017-Nov-15 17:28N 47°39' W 122°20'0 0.0
2017-Nov-15 16:55N 47°39' W 122°20'0 0.0
2017-Nov-15 16:30N 47°39' W 122°20'0 0.0
2017-Nov-15 15:57N 47°39' W 122°20'0 0.0
2017-Nov-15 15:18N 47°39' W 122°20'0 0.0
2017-Nov-15 14:54N 47°39' W 122°20'0 0.0
2017-Nov-15 14:24N 47°39' W 122°20'0 0.0
2017-Nov-15 13:57N 47°39' W 122°20'0 0.0
2017-Nov-15 13:30N 47°39' W 122°20'0 0.0
2017-Nov-15 12:57N 47°39' W 122°20'0 0.0
2017-Nov-15 12:30N 47°39' W 122°20'0 0.0
2017-Nov-15 12:00N 47°39' W 122°20'0 0.0
2017-Nov-15 11:30N 47°39' W 122°20'0 0.0
2017-Nov-15 11:00N 47°39' W 122°20'0 0.0
2017-Nov-15 10:29N 47°39' W 122°20'0 0.0
2017-Nov-15 10:00N 47°39' W 122°20'0 0.0
2017-Nov-15 09:30N 47°39' W 122°20'0 0.0
2017-Nov-15 08:56N 47°39' W 122°20'0 0.0
2017-Nov-15 08:29N 47°39' W 122°20'0 0.0
2017-Nov-15 07:59N 47°39' W 122°20'0 0.0
2017-Nov-15 07:29N 47°39' W 122°20'0 0.0
2017-Nov-15 06:59N 47°39' W 122°20'0 0.0
2017-Nov-15 06:29N 47°39' W 122°20'0 0.0
2017-Nov-15 05:53N 47°39' W 122°20'0 0.0
2017-Nov-15 05:26N 47°39' W 122°20'0 0.0
2017-Nov-15 04:59N 47°39' W 122°20'0 0.0
2017-Nov-15 04:17N 47°39' W 122°20'0 0.0
2017-Nov-15 03:56N 47°39' W 122°20'0 0.0
2017-Nov-15 03:23N 47°39' W 122°20'0 0.0
2017-Nov-15 02:59N 47°39' W 122°20'0 0.0
2017-Nov-15 02:29N 47°39' W 122°20'0 0.0
2017-Nov-15 01:59N 47°39' W 122°20'0 0.0
2017-Nov-15 01:26N 47°39' W 122°20'0 0.0
2017-Nov-15 00:59N 47°39' W 122°20'0 0.0
2017-Nov-15 00:29N 47°39' W 122°20'0 0.0
2017-Nov-14 23:58N 47°39' W 122°20'0 0.0
2017-Nov-14 23:28N 47°39' W 122°20'0 0.0
2017-Nov-14 22:58N 47°39' W 122°20'0 0.0
2017-Nov-14 22:28N 47°39' W 122°20'0 0.0
2017-Nov-14 21:58N 47°39' W 122°20'0 0.0
2017-Nov-14 21:25N 47°39' W 122°20'0 0.0
2017-Nov-14 20:58N 47°39' W 122°20'0 0.0
2017-Nov-14 20:28N 47°39' W 122°20'0 0.0
2017-Nov-14 19:55N 47°39' W 122°20'0 0.0
2017-Nov-14 19:25N 47°39' W 122°20'0 0.0
2017-Nov-14 18:58N 47°39' W 122°20'0 0.0
2017-Nov-14 18:25N 47°39' W 122°20'0 0.0
2017-Nov-14 17:58N 47°39' W 122°20'0 0.0
2017-Nov-14 17:30N 47°39' W 122°20'0 0.0
2017-Nov-14 16:58N 47°39' W 122°20'0 0.0
2017-Nov-14 16:30N 47°39' W 122°20'0 0.0
2017-Nov-14 16:00N 47°39' W 122°20'0 0.0
2017-Nov-14 15:30N 47°39' W 122°20'0 0.0
2017-Nov-14 14:42N 47°39' W 122°20'0 0.0
2017-Nov-14 14:30N 47°39' W 122°20'0 0.0
2017-Nov-14 13:51N 47°39' W 122°20'0 0.0
2017-Nov-14 13:30N 47°39' W 122°20'0 0.0
2017-Nov-14 13:00N 47°39' W 122°20'0 0.0
2017-Nov-14 12:30N 47°39' W 122°20'0 0.0
2017-Nov-14 11:39N 47°39' W 122°20'0 0.0
2017-Nov-14 11:27N 47°39' W 122°20'0 0.0
2017-Nov-14 11:00N 47°39' W 122°20'0 0.0
2017-Nov-14 10:30N 47°39' W 122°20'0 0.0
2017-Nov-14 09:57N 47°39' W 122°20'0 0.0
2017-Nov-14 09:27N 47°39' W 122°20'0 0.0
2017-Nov-14 08:59N 47°39' W 122°20'0 0.0
2017-Nov-14 08:29N 47°39' W 122°20'0 0.0
2017-Nov-14 07:59N 47°39' W 122°20'0 0.0
2017-Nov-14 07:29N 47°39' W 122°20'0 0.0
2017-Nov-14 07:00N 47°39' W 122°20'0 0.0
2017-Nov-14 06:17N 47°39' W 122°20'0 0.0
2017-Nov-14 05:50N 47°39' W 122°20'0 0.0
2017-Nov-14 05:26N 47°39' W 122°20'0 0.0
2017-Nov-14 04:59N 47°39' W 122°20'0 0.0
2017-Nov-14 04:29N 47°39' W 122°20'0 0.0
2017-Nov-14 03:44N 47°39' W 122°20'0 0.0
2017-Nov-14 02:59N 47°39' W 122°20'0 0.0
2017-Nov-14 02:29N 47°39' W 122°20'0 0.0
2017-Nov-14 01:59N 47°39' W 122°20'0 0.0
2017-Nov-14 01:26N 47°39' W 122°20'0 0.0
2017-Nov-14 00:56N 47°39' W 122°20'0 0.0
2017-Nov-14 00:29N 47°39' W 122°20'0 0.0
2017-Nov-13 23:56N 47°39' W 122°20'0 0.0
2017-Nov-13 23:23N 47°39' W 122°20'0 0.0
2017-Nov-13 22:56N 47°39' W 122°20'0 0.0
2017-Nov-13 21:46N 47°39' W 122°20'0 0.0
2017-Nov-13 01:50N 47°39' W 122°20'  

Dump ship's entire track history